Stillwater, Oklahoma
Current Conditions -  °F | °C
As of 10:25 AM on Monday 22 Dec 2014 (Local Time) from KSWO Reporting Station
Overcast Overcast  
Wind Chill: 51°   Ceiling: 2200
Heat Index: 51°   Visibility: 7mi
Dew Point: 47°   Wind: 6mph
Humidity: 86%   Direction: 300°WNW
Pressure: 29.58"   Gusts: NA
Location:  36.12°N, 97.06°W
Report Text: KSWO 221625Z 30005KT 7SM SCT013 BKN022 OVC029 11/08 A2958 RMK AO2 T01060083
Loading
Personal Weather Stations






























Interactive Weather Map New forecast layout! Learn more

10-Day Weather Forecast

Advertisements
Track Severe Weather on mobile